sensor_id;sensor_type;location;lat;lon;timestamp;P1;durP1;ratioP1;P2;durP2;ratioP2
5499;SDS011;2772;42.700;23.304;2024-02-14T00:01:45;5.87;;;5.33;;
5499;SDS011;2772;42.700;23.304;2024-02-14T00:04:11;5.13;;;4.03;;
5499;SDS011;2772;42.700;23.304;2024-02-14T00:06:39;5.93;;;4.77;;
5499;SDS011;2772;42.700;23.304;2024-02-14T00:09:06;6.10;;;5.10;;
5499;SDS011;2772;42.700;23.304;2024-02-14T00:11:32;7.17;;;5.33;;
5499;SDS011;2772;42.700;23.304;2024-02-14T00:13:59;5.60;;;5.10;;
5499;SDS011;2772;42.700;23.304;2024-02-14T00:16:27;21.83;;;5.73;;
5499;SDS011;2772;42.700;23.304;2024-02-14T00:18:56;6.97;;;4.50;;
5499;SDS011;2772;42.700;23.304;2024-02-14T00:21:23;6.00;;;5.40;;
5499;SDS011;2772;42.700;23.304;2024-02-14T00:23:50;6.40;;;4.83;;
5499;SDS011;2772;42.700;23.304;2024-02-14T00:26:17;6.03;;;5.33;;
5499;SDS011;2772;42.700;23.304;2024-02-14T00:28:43;5.17;;;4.77;;
5499;SDS011;2772;42.700;23.304;2024-02-14T00:31:10;6.80;;;4.73;;
5499;SDS011;2772;42.700;23.304;2024-02-14T00:33:37;5.00;;;4.57;;
5499;SDS011;2772;42.700;23.304;2024-02-14T00:36:05;5.93;;;5.33;;
5499;SDS011;2772;42.700;23.304;2024-02-14T00:38:32;6.00;;;5.40;;
5499;SDS011;2772;42.700;23.304;2024-02-14T00:40:59;6.87;;;5.40;;
5499;SDS011;2772;42.700;23.304;2024-02-14T00:43:26;5.77;;;5.17;;
5499;SDS011;2772;42.700;23.304;2024-02-14T00:45:53;6.80;;;5.20;;
5499;SDS011;2772;42.700;23.304;2024-02-14T00:48:21;6.97;;;5.70;;
5499;SDS011;2772;42.700;23.304;2024-02-14T00:50:48;5.80;;;5.20;;
5499;SDS011;2772;42.700;23.304;2024-02-14T00:53:18;7.03;;;5.50;;
5499;SDS011;2772;42.700;23.304;2024-02-14T00:55:45;6.30;;;5.50;;
5499;SDS011;2772;42.700;23.304;2024-02-14T00:58:12;5.67;;;5.07;;
5499;SDS011;2772;42.700;23.304;2024-02-14T01:00:39;5.33;;;4.83;;
5499;SDS011;2772;42.700;23.304;2024-02-14T01:03:06;6.97;;;5.07;;
5499;SDS011;2772;42.700;23.304;2024-02-14T01:05:33;9.33;;;6.03;;
5499;SDS011;2772;42.700;23.304;2024-02-14T01:07:59;10.83;;;5.83;;
5499;SDS011;2772;42.700;23.304;2024-02-14T01:10:29;6.93;;;5.30;;
5499;SDS011;2772;42.700;23.304;2024-02-14T01:12:55;7.40;;;5.90;;
5499;SDS011;2772;42.700;23.304;2024-02-14T01:15:22;7.50;;;5.20;;
5499;SDS011;2772;42.700;23.304;2024-02-14T01:17:49;5.13;;;4.63;;
5499;SDS011;2772;42.700;23.304;2024-02-14T01:20:15;7.10;;;5.50;;
5499;SDS011;2772;42.700;23.304;2024-02-14T01:22:43;10.30;;;6.47;;
5499;SDS011;2772;42.700;23.304;2024-02-14T01:25:11;5.30;;;4.80;;
5499;SDS011;2772;42.700;23.304;2024-02-14T01:27:39;8.20;;;5.77;;
5499;SDS011;2772;42.700;23.304;2024-02-14T01:30:08;7.90;;;6.07;;
5499;SDS011;2772;42.700;23.304;2024-02-14T01:32:38;5.97;;;5.37;;
5499;SDS011;2772;42.700;23.304;2024-02-14T01:35:05;6.87;;;5.80;;
5499;SDS011;2772;42.700;23.304;2024-02-14T01:37:33;6.27;;;5.60;;
5499;SDS011;2772;42.700;23.304;2024-02-14T01:39:59;8.93;;;5.90;;
5499;SDS011;2772;42.700;23.304;2024-02-14T01:42:26;6.50;;;5.80;;
5499;SDS011;2772;42.700;23.304;2024-02-14T01:44:54;8.27;;;5.80;;
5499;SDS011;2772;42.700;23.304;2024-02-14T01:47:21;6.90;;;5.50;;
5499;SDS011;2772;42.700;23.304;2024-02-14T01:49:48;7.10;;;5.60;;
5499;SDS011;2772;42.700;23.304;2024-02-14T01:52:15;7.00;;;5.90;;
5499;SDS011;2772;42.700;23.304;2024-02-14T01:54:42;8.80;;;6.03;;
5499;SDS011;2772;42.700;23.304;2024-02-14T01:57:09;6.60;;;5.80;;
5499;SDS011;2772;42.700;23.304;2024-02-14T01:59:37;7.37;;;6.40;;
5499;SDS011;2772;42.700;23.304;2024-02-14T02:02:05;8.70;;;6.60;;
5499;SDS011;2772;42.700;23.304;2024-02-14T02:04:33;9.33;;;6.50;;
5499;SDS011;2772;42.700;23.304;2024-02-14T02:07:00;9.20;;;6.47;;
5499;SDS011;2772;42.700;23.304;2024-02-14T02:09:27;9.90;;;6.50;;
5499;SDS011;2772;42.700;23.304;2024-02-14T02:11:56;9.87;;;6.50;;
5499;SDS011;2772;42.700;23.304;2024-02-14T02:14:23;10.37;;;6.20;;
5499;SDS011;2772;42.700;23.304;2024-02-14T02:16:51;9.43;;;6.67;;
5499;SDS011;2772;42.700;23.304;2024-02-14T02:19:19;8.50;;;6.37;;
5499;SDS011;2772;42.700;23.304;2024-02-14T02:21:46;7.20;;;6.30;;
5499;SDS011;2772;42.700;23.304;2024-02-14T02:24:14;8.00;;;6.23;;
5499;SDS011;2772;42.700;23.304;2024-02-14T02:26:41;9.47;;;6.80;;
5499;SDS011;2772;42.700;23.304;2024-02-14T02:29:09;8.73;;;6.73;;
5499;SDS011;2772;42.700;23.304;2024-02-14T02:31:36;9.23;;;6.83;;
5499;SDS011;2772;42.700;23.304;2024-02-14T02:34:03;10.40;;;6.90;;
5499;SDS011;2772;42.700;23.304;2024-02-14T02:36:30;9.00;;;7.10;;
5499;SDS011;2772;42.700;23.304;2024-02-14T02:38:56;7.27;;;6.30;;
5499;SDS011;2772;42.700;23.304;2024-02-14T02:41:26;8.40;;;5.67;;
5499;SDS011;2772;42.700;23.304;2024-02-14T02:43:53;7.83;;;6.53;;
5499;SDS011;2772;42.700;23.304;2024-02-14T02:46:20;8.07;;;5.30;;
5499;SDS011;2772;42.700;23.304;2024-02-14T02:48:47;8.70;;;6.67;;
5499;SDS011;2772;42.700;23.304;2024-02-14T02:51:15;9.23;;;7.13;;
5499;SDS011;2772;42.700;23.304;2024-02-14T02:53:42;9.67;;;6.20;;
5499;SDS011;2772;42.700;23.304;2024-02-14T02:56:09;8.57;;;7.17;;
5499;SDS011;2772;42.700;23.304;2024-02-14T02:58:38;8.70;;;7.17;;
5499;SDS011;2772;42.700;23.304;2024-02-14T03:01:07;8.83;;;6.30;;
5499;SDS011;2772;42.700;23.304;2024-02-14T03:03:34;11.20;;;5.93;;
5499;SDS011;2772;42.700;23.304;2024-02-14T03:06:01;8.03;;;6.53;;
5499;SDS011;2772;42.700;23.304;2024-02-14T03:08:28;7.50;;;6.60;;
5499;SDS011;2772;42.700;23.304;2024-02-14T03:10:55;9.17;;;7.57;;
5499;SDS011;2772;42.700;23.304;2024-02-14T03:13:24;9.50;;;6.63;;
5499;SDS011;2772;42.700;23.304;2024-02-14T03:15:52;7.00;;;6.00;;
5499;SDS011;2772;42.700;23.304;2024-02-14T03:18:23;8.57;;;6.37;;
5499;SDS011;2772;42.700;23.304;2024-02-14T03:20:50;7.43;;;6.20;;
5499;SDS011;2772;42.700;23.304;2024-02-14T03:23:18;9.10;;;6.70;;
5499;SDS011;2772;42.700;23.304;2024-02-14T03:25:45;11.73;;;6.93;;
5499;SDS011;2772;42.700;23.304;2024-02-14T03:28:11;9.20;;;6.90;;
5499;SDS011;2772;42.700;23.304;2024-02-14T03:30:38;9.20;;;6.77;;
5499;SDS011;2772;42.700;23.304;2024-02-14T03:33:06;9.70;;;7.10;;
5499;SDS011;2772;42.700;23.304;2024-02-14T03:35:34;11.70;;;8.30;;
5499;SDS011;2772;42.700;23.304;2024-02-14T03:38:01;7.10;;;6.17;;
5499;SDS011;2772;42.700;23.304;2024-02-14T03:40:28;9.47;;;6.87;;
5499;SDS011;2772;42.700;23.304;2024-02-14T03:42:56;9.63;;;7.10;;
5499;SDS011;2772;42.700;23.304;2024-02-14T03:45:23;8.40;;;6.97;;
5499;SDS011;2772;42.700;23.304;2024-02-14T03:47:50;10.53;;;7.00;;
5499;SDS011;2772;42.700;23.304;2024-02-14T03:50:18;8.40;;;7.27;;
5499;SDS011;2772;42.700;23.304;2024-02-14T03:52:44;11.53;;;6.90;;
5499;SDS011;2772;42.700;23.304;2024-02-14T03:55:11;9.47;;;7.50;;
5499;SDS011;2772;42.700;23.304;2024-02-14T03:57:39;12.53;;;5.80;;
5499;SDS011;2772;42.700;23.304;2024-02-14T04:00:07;9.17;;;6.90;;
5499;SDS011;2772;42.700;23.304;2024-02-14T04:02:35;10.40;;;7.27;;
5499;SDS011;2772;42.700;23.304;2024-02-14T04:05:02;10.53;;;7.77;;
5499;SDS011;2772;42.700;23.304;2024-02-14T04:07:30;8.90;;;6.33;;
5499;SDS011;2772;42.700;23.304;2024-02-14T04:09:57;9.27;;;7.03;;
5499;SDS011;2772;42.700;23.304;2024-02-14T04:12:24;10.77;;;7.40;;
5499;SDS011;2772;42.700;23.304;2024-02-14T04:14:50;9.87;;;7.50;;
5499;SDS011;2772;42.700;23.304;2024-02-14T04:17:17;9.93;;;7.73;;
5499;SDS011;2772;42.700;23.304;2024-02-14T04:19:44;13.73;;;7.70;;
5499;SDS011;2772;42.700;23.304;2024-02-14T04:22:11;13.67;;;7.80;;
5499;SDS011;2772;42.700;23.304;2024-02-14T04:24:39;11.93;;;7.90;;
5499;SDS011;2772;42.700;23.304;2024-02-14T04:27:05;12.93;;;7.53;;
5499;SDS011;2772;42.700;23.304;2024-02-14T04:29:32;11.00;;;7.60;;
5499;SDS011;2772;42.700;23.304;2024-02-14T04:32:00;17.23;;;7.97;;
5499;SDS011;2772;42.700;23.304;2024-02-14T04:34:27;9.87;;;7.37;;
5499;SDS011;2772;42.700;23.304;2024-02-14T04:36:55;15.03;;;8.27;;
5499;SDS011;2772;42.700;23.304;2024-02-14T04:39:21;13.63;;;8.70;;
5499;SDS011;2772;42.700;23.304;2024-02-14T04:41:50;11.43;;;8.10;;
5499;SDS011;2772;42.700;23.304;2024-02-14T04:44:17;13.83;;;8.67;;
5499;SDS011;2772;42.700;23.304;2024-02-14T04:46:44;10.70;;;8.13;;
5499;SDS011;2772;42.700;23.304;2024-02-14T04:49:11;18.13;;;8.30;;
5499;SDS011;2772;42.700;23.304;2024-02-14T04:51:39;12.83;;;8.83;;
5499;SDS011;2772;42.700;23.304;2024-02-14T04:54:06;12.57;;;8.27;;
5499;SDS011;2772;42.700;23.304;2024-02-14T04:56:33;20.60;;;9.00;;
5499;SDS011;2772;42.700;23.304;2024-02-14T04:59:02;13.87;;;8.60;;
5499;SDS011;2772;42.700;23.304;2024-02-14T05:01:30;13.80;;;9.00;;
5499;SDS011;2772;42.700;23.304;2024-02-14T05:03:56;12.73;;;8.90;;
5499;SDS011;2772;42.700;23.304;2024-02-14T05:06:23;10.27;;;7.73;;
5499;SDS011;2772;42.700;23.304;2024-02-14T05:08:50;15.87;;;9.13;;
5499;SDS011;2772;42.700;23.304;2024-02-14T05:11:18;13.60;;;9.13;;
5499;SDS011;2772;42.700;23.304;2024-02-14T05:13:45;15.83;;;9.33;;
5499;SDS011;2772;42.700;23.304;2024-02-14T05:16:17;14.03;;;10.00;;
5499;SDS011;2772;42.700;23.304;2024-02-14T05:18:44;13.20;;;8.73;;
5499;SDS011;2772;42.700;23.304;2024-02-14T05:21:11;16.27;;;11.07;;
5499;SDS011;2772;42.700;23.304;2024-02-14T05:23:38;12.87;;;8.67;;
5499;SDS011;2772;42.700;23.304;2024-02-14T05:26:05;13.30;;;9.30;;
5499;SDS011;2772;42.700;23.304;2024-02-14T05:28:32;13.43;;;8.93;;
5499;SDS011;2772;42.700;23.304;2024-02-14T05:30:59;15.73;;;10.03;;
5499;SDS011;2772;42.700;23.304;2024-02-14T05:33:28;18.97;;;9.73;;
5499;SDS011;2772;42.700;23.304;2024-02-14T05:35:54;13.17;;;9.60;;
5499;SDS011;2772;42.700;23.304;2024-02-14T05:38:21;15.57;;;10.10;;
5499;SDS011;2772;42.700;23.304;2024-02-14T05:40:48;22.00;;;10.40;;
5499;SDS011;2772;42.700;23.304;2024-02-14T05:43:15;18.57;;;9.07;;
5499;SDS011;2772;42.700;23.304;2024-02-14T05:45:43;18.07;;;9.97;;
5499;SDS011;2772;42.700;23.304;2024-02-14T05:48:10;12.33;;;7.90;;
5499;SDS011;2772;42.700;23.304;2024-02-14T05:50:38;15.07;;;9.60;;
5499;SDS011;2772;42.700;23.304;2024-02-14T05:53:05;16.20;;;9.07;;
5499;SDS011;2772;42.700;23.304;2024-02-14T05:55:32;16.33;;;9.40;;
5499;SDS011;2772;42.700;23.304;2024-02-14T05:57:58;25.63;;;10.50;;
5499;SDS011;2772;42.700;23.304;2024-02-14T06:00:25;20.13;;;9.97;;
5499;SDS011;2772;42.700;23.304;2024-02-14T06:02:52;13.03;;;9.13;;
5499;SDS011;2772;42.700;23.304;2024-02-14T06:05:19;13.00;;;9.03;;
5499;SDS011;2772;42.700;23.304;2024-02-14T06:07:47;16.67;;;8.93;;
5499;SDS011;2772;42.700;23.304;2024-02-14T06:10:15;19.60;;;9.70;;
5499;SDS011;2772;42.700;23.304;2024-02-14T06:12:43;16.17;;;9.30;;
5499;SDS011;2772;42.700;23.304;2024-02-14T06:15:09;14.93;;;8.83;;
5499;SDS011;2772;42.700;23.304;2024-02-14T06:17:36;18.73;;;9.97;;
5499;SDS011;2772;42.700;23.304;2024-02-14T06:20:04;10.93;;;8.77;;
5499;SDS011;2772;42.700;23.304;2024-02-14T06:22:32;12.10;;;8.47;;
5499;SDS011;2772;42.700;23.304;2024-02-14T06:25:00;15.20;;;9.60;;
5499;SDS011;2772;42.700;23.304;2024-02-14T06:27:30;12.60;;;8.77;;
5499;SDS011;2772;42.700;23.304;2024-02-14T06:29:57;18.60;;;9.20;;
5499;SDS011;2772;42.700;23.304;2024-02-14T06:32:24;16.30;;;8.40;;
5499;SDS011;2772;42.700;23.304;2024-02-14T06:34:50;19.97;;;9.30;;
5499;SDS011;2772;42.700;23.304;2024-02-14T06:37:17;14.17;;;9.70;;
5499;SDS011;2772;42.700;23.304;2024-02-14T06:39:44;15.33;;;8.80;;
5499;SDS011;2772;42.700;23.304;2024-02-14T06:42:12;19.80;;;8.90;;
5499;SDS011;2772;42.700;23.304;2024-02-14T06:44:38;22.70;;;11.53;;
5499;SDS011;2772;42.700;23.304;2024-02-14T06:47:05;12.67;;;7.90;;
5499;SDS011;2772;42.700;23.304;2024-02-14T06:49:32;13.27;;;8.77;;
5499;SDS011;2772;42.700;23.304;2024-02-14T06:51:59;12.23;;;9.17;;
5499;SDS011;2772;42.700;23.304;2024-02-14T06:54:26;20.60;;;8.83;;
5499;SDS011;2772;42.700;23.304;2024-02-14T06:56:52;11.17;;;7.50;;
5499;SDS011;2772;42.700;23.304;2024-02-14T06:59:21;17.90;;;8.07;;
5499;SDS011;2772;42.700;23.304;2024-02-14T07:01:47;14.87;;;8.27;;
5499;SDS011;2772;42.700;23.304;2024-02-14T07:04:14;13.70;;;7.37;;
5499;SDS011;2772;42.700;23.304;2024-02-14T07:06:41;14.03;;;7.80;;
5499;SDS011;2772;42.700;23.304;2024-02-14T07:09:08;14.67;;;8.90;;
5499;SDS011;2772;42.700;23.304;2024-02-14T07:11:34;10.67;;;7.50;;
5499;SDS011;2772;42.700;23.304;2024-02-14T07:14:03;13.60;;;8.10;;
5499;SDS011;2772;42.700;23.304;2024-02-14T07:16:31;15.10;;;7.60;;
5499;SDS011;2772;42.700;23.304;2024-02-14T07:18:58;13.30;;;8.47;;
5499;SDS011;2772;42.700;23.304;2024-02-14T07:21:25;19.70;;;8.30;;
5499;SDS011;2772;42.700;23.304;2024-02-14T07:23:52;11.70;;;7.97;;
5499;SDS011;2772;42.700;23.304;2024-02-14T07:26:19;24.70;;;9.93;;
5499;SDS011;2772;42.700;23.304;2024-02-14T07:28:46;19.53;;;9.27;;
5499;SDS011;2772;42.700;23.304;2024-02-14T07:31:12;17.27;;;9.13;;
5499;SDS011;2772;42.700;23.304;2024-02-14T07:33:40;13.37;;;8.57;;
5499;SDS011;2772;42.700;23.304;2024-02-14T07:36:08;17.00;;;8.20;;
5499;SDS011;2772;42.700;23.304;2024-02-14T07:38:35;13.90;;;7.57;;
5499;SDS011;2772;42.700;23.304;2024-02-14T07:41:01;14.93;;;7.33;;
5499;SDS011;2772;42.700;23.304;2024-02-14T07:43:28;12.83;;;7.63;;
5499;SDS011;2772;42.700;23.304;2024-02-14T07:45:55;10.83;;;7.23;;
5499;SDS011;2772;42.700;23.304;2024-02-14T07:48:22;10.03;;;5.77;;
5499;SDS011;2772;42.700;23.304;2024-02-14T07:50:50;15.33;;;7.10;;
5499;SDS011;2772;42.700;23.304;2024-02-14T07:53:17;8.33;;;7.03;;
5499;SDS011;2772;42.700;23.304;2024-02-14T07:55:43;8.30;;;6.20;;
5499;SDS011;2772;42.700;23.304;2024-02-14T07:58:10;10.40;;;7.57;;
5499;SDS011;2772;42.700;23.304;2024-02-14T08:00:37;12.20;;;7.97;;
5499;SDS011;2772;42.700;23.304;2024-02-14T08:03:04;15.53;;;7.47;;
5499;SDS011;2772;42.700;23.304;2024-02-14T08:05:31;8.70;;;6.20;;
5499;SDS011;2772;42.700;23.304;2024-02-14T08:08:00;13.83;;;7.43;;
5499;SDS011;2772;42.700;23.304;2024-02-14T08:10:26;10.70;;;6.97;;
5499;SDS011;2772;42.700;23.304;2024-02-14T08:12:53;10.73;;;6.87;;
5499;SDS011;2772;42.700;23.304;2024-02-14T08:15:20;15.63;;;8.10;;
5499;SDS011;2772;42.700;23.304;2024-02-14T08:17:46;15.93;;;7.47;;
5499;SDS011;2772;42.700;23.304;2024-02-14T08:20:13;10.73;;;6.63;;
5499;SDS011;2772;42.700;23.304;2024-02-14T08:22:40;8.77;;;6.40;;
5499;SDS011;2772;42.700;23.304;2024-02-14T08:25:09;8.40;;;6.57;;
5499;SDS011;2772;42.700;23.304;2024-02-14T08:27:36;22.53;;;7.30;;
5499;SDS011;2772;42.700;23.304;2024-02-14T08:30:04;9.87;;;7.27;;
5499;SDS011;2772;42.700;23.304;2024-02-14T08:32:31;12.20;;;7.20;;
5499;SDS011;2772;42.700;23.304;2024-02-14T08:34:58;13.23;;;7.27;;
5499;SDS011;2772;42.700;23.304;2024-02-14T08:37:25;13.70;;;7.43;;
5499;SDS011;2772;42.700;23.304;2024-02-14T08:39:52;12.30;;;7.70;;
5499;SDS011;2772;42.700;23.304;2024-02-14T08:42:20;11.83;;;6.90;;
5499;SDS011;2772;42.700;23.304;2024-02-14T08:44:47;8.50;;;6.23;;
5499;SDS011;2772;42.700;23.304;2024-02-14T08:47:13;8.50;;;6.53;;
5499;SDS011;2772;42.700;23.304;2024-02-14T08:49:40;11.40;;;8.30;;
5499;SDS011;2772;42.700;23.304;2024-02-14T08:52:07;13.73;;;6.90;;
5499;SDS011;2772;42.700;23.304;2024-02-14T08:54:35;10.40;;;6.90;;
5499;SDS011;2772;42.700;23.304;2024-02-14T08:57:02;14.03;;;8.43;;
5499;SDS011;2772;42.700;23.304;2024-02-14T08:59:31;11.80;;;8.70;;
5499;SDS011;2772;42.700;23.304;2024-02-14T09:01:58;22.63;;;10.40;;
5499;SDS011;2772;42.700;23.304;2024-02-14T09:04:24;22.33;;;8.80;;
5499;SDS011;2772;42.700;23.304;2024-02-14T09:06:52;10.47;;;6.27;;
5499;SDS011;2772;42.700;23.304;2024-02-14T09:09:19;8.43;;;6.77;;
5499;SDS011;2772;42.700;23.304;2024-02-14T09:11:46;9.50;;;7.17;;
5499;SDS011;2772;42.700;23.304;2024-02-14T09:14:13;9.37;;;6.60;;
5499;SDS011;2772;42.700;23.304;2024-02-14T09:16:41;17.60;;;9.93;;
5499;SDS011;2772;42.700;23.304;2024-02-14T09:19:07;11.13;;;7.97;;
5499;SDS011;2772;42.700;23.304;2024-02-14T09:21:37;10.00;;;7.20;;
5499;SDS011;2772;42.700;23.304;2024-02-14T09:24:04;10.67;;;7.20;;
5499;SDS011;2772;42.700;23.304;2024-02-14T09:26:31;11.40;;;7.70;;
5499;SDS011;2772;42.700;23.304;2024-02-14T09:28:58;11.47;;;7.47;;
5499;SDS011;2772;42.700;23.304;2024-02-14T09:31:25;9.43;;;7.03;;
5499;SDS011;2772;42.700;23.304;2024-02-14T09:33:53;8.00;;;6.50;;
5499;SDS011;2772;42.700;23.304;2024-02-14T09:36:22;10.00;;;5.77;;
5499;SDS011;2772;42.700;23.304;2024-02-14T09:38:48;6.83;;;6.13;;
5499;SDS011;2772;42.700;23.304;2024-02-14T09:41:21;10.30;;;6.90;;
5499;SDS011;2772;42.700;23.304;2024-02-14T09:43:51;11.80;;;6.30;;
5499;SDS011;2772;42.700;23.304;2024-02-14T09:46:18;12.17;;;7.03;;
5499;SDS011;2772;42.700;23.304;2024-02-14T09:48:45;18.97;;;7.20;;
5499;SDS011;2772;42.700;23.304;2024-02-14T09:51:14;11.70;;;7.13;;
5499;SDS011;2772;42.700;23.304;2024-02-14T09:53:41;9.20;;;6.23;;
5499;SDS011;2772;42.700;23.304;2024-02-14T09:56:09;9.40;;;5.67;;
5499;SDS011;2772;42.700;23.304;2024-02-14T09:58:40;7.13;;;5.67;;
5499;SDS011;2772;42.700;23.304;2024-02-14T10:01:07;6.37;;;5.23;;
5499;SDS011;2772;42.700;23.304;2024-02-14T10:03:33;9.20;;;7.07;;
5499;SDS011;2772;42.700;23.304;2024-02-14T10:06:01;14.93;;;7.40;;
5499;SDS011;2772;42.700;23.304;2024-02-14T10:08:30;13.63;;;6.40;;
5499;SDS011;2772;42.700;23.304;2024-02-14T10:10:58;11.40;;;7.00;;
5499;SDS011;2772;42.700;23.304;2024-02-14T10:13:26;8.97;;;6.80;;
5499;SDS011;2772;42.700;23.304;2024-02-14T10:15:53;8.50;;;6.27;;
5499;SDS011;2772;42.700;23.304;2024-02-14T10:18:21;7.90;;;6.13;;
5499;SDS011;2772;42.700;23.304;2024-02-14T10:20:52;19.40;;;7.90;;
5499;SDS011;2772;42.700;23.304;2024-02-14T10:23:20;9.80;;;6.37;;
5499;SDS011;2772;42.700;23.304;2024-02-14T10:25:48;8.73;;;5.90;;
5499;SDS011;2772;42.700;23.304;2024-02-14T10:28:17;12.63;;;6.90;;
5499;SDS011;2772;42.700;23.304;2024-02-14T10:30:45;12.60;;;6.80;;
5499;SDS011;2772;42.700;23.304;2024-02-14T10:33:12;10.10;;;6.67;;
5499;SDS011;2772;42.700;23.304;2024-02-14T10:35:40;8.53;;;5.80;;
5499;SDS011;2772;42.700;23.304;2024-02-14T10:38:08;13.00;;;8.40;;
5499;SDS011;2772;42.700;23.304;2024-02-14T10:40:35;7.33;;;5.53;;
5499;SDS011;2772;42.700;23.304;2024-02-14T10:43:05;11.27;;;6.30;;
5499;SDS011;2772;42.700;23.304;2024-02-14T10:45:34;8.17;;;5.90;;
5499;SDS011;2772;42.700;23.304;2024-02-14T10:48:01;11.60;;;6.33;;
5499;SDS011;2772;42.700;23.304;2024-02-14T10:50:31;8.83;;;6.47;;
5499;SDS011;2772;42.700;23.304;2024-02-14T10:52:59;13.10;;;7.60;;
5499;SDS011;2772;42.700;23.304;2024-02-14T10:55:30;11.20;;;6.50;;
5499;SDS011;2772;42.700;23.304;2024-02-14T10:57:57;9.87;;;6.33;;
5499;SDS011;2772;42.700;23.304;2024-02-14T11:00:26;8.17;;;7.30;;
5499;SDS011;2772;42.700;23.304;2024-02-14T11:02:54;10.30;;;6.40;;
5499;SDS011;2772;42.700;23.304;2024-02-14T11:05:21;8.10;;;6.03;;
5499;SDS011;2772;42.700;23.304;2024-02-14T11:07:49;7.13;;;5.50;;
5499;SDS011;2772;42.700;23.304;2024-02-14T11:10:18;11.63;;;7.90;;
5499;SDS011;2772;42.700;23.304;2024-02-14T11:12:46;9.17;;;7.20;;
5499;SDS011;2772;42.700;23.304;2024-02-14T11:15:16;10.97;;;5.30;;
5499;SDS011;2772;42.700;23.304;2024-02-14T11:17:45;8.50;;;6.87;;
5499;SDS011;2772;42.700;23.304;2024-02-14T11:20:17;9.83;;;7.10;;
5499;SDS011;2772;42.700;23.304;2024-02-14T11:22:54;11.07;;;7.70;;
5499;SDS011;2772;42.700;23.304;2024-02-14T11:25:22;12.63;;;7.10;;
5499;SDS011;2772;42.700;23.304;2024-02-14T11:27:54;11.07;;;7.13;;
5499;SDS011;2772;42.700;23.304;2024-02-14T11:30:31;12.03;;;6.57;;
5499;SDS011;2772;42.700;23.304;2024-02-14T11:33:12;10.07;;;7.17;;
5499;SDS011;2772;42.700;23.304;2024-02-14T11:35:40;9.60;;;6.97;;
5499;SDS011;2772;42.700;23.304;2024-02-14T11:38:07;13.13;;;7.83;;
5499;SDS011;2772;42.700;23.304;2024-02-14T11:40:34;7.00;;;6.33;;
5499;SDS011;2772;42.700;23.304;2024-02-14T11:43:01;6.50;;;5.90;;
5499;SDS011;2772;42.700;23.304;2024-02-14T11:45:28;17.40;;;6.60;;
5499;SDS011;2772;42.700;23.304;2024-02-14T11:47:54;8.70;;;6.73;;
5499;SDS011;2772;42.700;23.304;2024-02-14T11:50:22;22.70;;;8.40;;
5499;SDS011;2772;42.700;23.304;2024-02-14T11:52:50;13.67;;;6.67;;
5499;SDS011;2772;42.700;23.304;2024-02-14T11:55:18;7.40;;;6.10;;
5499;SDS011;2772;42.700;23.304;2024-02-14T11:57:53;12.23;;;6.63;;
5499;SDS011;2772;42.700;23.304;2024-02-14T12:00:20;9.57;;;6.60;;
5499;SDS011;2772;42.700;23.304;2024-02-14T12:02:47;8.90;;;5.87;;
5499;SDS011;2772;42.700;23.304;2024-02-14T12:05:14;8.00;;;5.50;;
5499;SDS011;2772;42.700;23.304;2024-02-14T12:07:43;8.67;;;5.83;;
5499;SDS011;2772;42.700;23.304;2024-02-14T12:10:10;5.97;;;5.40;;
5499;SDS011;2772;42.700;23.304;2024-02-14T12:12:37;8.70;;;5.80;;
5499;SDS011;2772;42.700;23.304;2024-02-14T12:15:04;14.53;;;6.37;;
5499;SDS011;2772;42.700;23.304;2024-02-14T12:17:36;6.63;;;5.70;;
5499;SDS011;2772;42.700;23.304;2024-02-14T12:20:08;11.93;;;7.93;;
5499;SDS011;2772;42.700;23.304;2024-02-14T12:22:36;7.87;;;6.07;;
5499;SDS011;2772;42.700;23.304;2024-02-14T12:25:05;7.80;;;5.80;;
5499;SDS011;2772;42.700;23.304;2024-02-14T12:27:36;6.90;;;5.27;;
5499;SDS011;2772;42.700;23.304;2024-02-14T12:30:04;9.07;;;6.40;;
5499;SDS011;2772;42.700;23.304;2024-02-14T12:32:32;14.53;;;6.57;;
5499;SDS011;2772;42.700;23.304;2024-02-14T12:34:58;11.67;;;6.60;;
5499;SDS011;2772;42.700;23.304;2024-02-14T12:37:25;13.43;;;7.57;;
5499;SDS011;2772;42.700;23.304;2024-02-14T12:39:52;11.00;;;6.43;;
5499;SDS011;2772;42.700;23.304;2024-02-14T12:42:22;7.07;;;5.70;;
5499;SDS011;2772;42.700;23.304;2024-02-14T12:44:51;9.17;;;5.50;;
5499;SDS011;2772;42.700;23.304;2024-02-14T12:47:19;23.00;;;6.10;;
5499;SDS011;2772;42.700;23.304;2024-02-14T12:49:46;10.03;;;6.30;;
5499;SDS011;2772;42.700;23.304;2024-02-14T12:52:14;10.40;;;5.93;;
5499;SDS011;2772;42.700;23.304;2024-02-14T12:54:41;6.87;;;5.20;;
5499;SDS011;2772;42.700;23.304;2024-02-14T12:57:08;12.70;;;6.40;;
5499;SDS011;2772;42.700;23.304;2024-02-14T12:59:36;13.93;;;6.10;;
5499;SDS011;2772;42.700;23.304;2024-02-14T13:02:03;11.03;;;7.20;;
5499;SDS011;2772;42.700;23.304;2024-02-14T13:04:31;14.33;;;5.53;;
5499;SDS011;2772;42.700;23.304;2024-02-14T13:06:58;14.20;;;6.50;;
5499;SDS011;2772;42.700;23.304;2024-02-14T13:09:25;27.03;;;6.63;;
5499;SDS011;2772;42.700;23.304;2024-02-14T13:11:53;7.00;;;5.33;;
5499;SDS011;2772;42.700;23.304;2024-02-14T13:14:19;8.50;;;6.93;;
5499;SDS011;2772;42.700;23.304;2024-02-14T13:16:48;9.88;;;7.10;;
5499;SDS011;2772;42.700;23.304;2024-02-14T13:19:15;9.50;;;6.47;;
5499;SDS011;2772;42.700;23.304;2024-02-14T13:21:42;10.77;;;6.80;;
5499;SDS011;2772;42.700;23.304;2024-02-14T13:24:10;7.47;;;5.77;;
5499;SDS011;2772;42.700;23.304;2024-02-14T13:26:39;14.73;;;6.83;;
5499;SDS011;2772;42.700;23.304;2024-02-14T13:29:06;9.60;;;7.47;;
5499;SDS011;2772;42.700;23.304;2024-02-14T13:31:33;6.90;;;5.37;;
5499;SDS011;2772;42.700;23.304;2024-02-14T13:34:01;31.50;;;7.87;;
5499;SDS011;2772;42.700;23.304;2024-02-14T13:36:29;14.37;;;7.07;;
5499;SDS011;2772;42.700;23.304;2024-02-14T13:38:57;8.70;;;6.10;;
5499;SDS011;2772;42.700;23.304;2024-02-14T13:41:23;7.17;;;6.07;;
5499;SDS011;2772;42.700;23.304;2024-02-14T13:43:50;15.00;;;6.90;;
5499;SDS011;2772;42.700;23.304;2024-02-14T13:46:17;10.13;;;6.97;;
5499;SDS011;2772;42.700;23.304;2024-02-14T13:48:44;10.30;;;5.77;;
5499;SDS011;2772;42.700;23.304;2024-02-14T13:51:12;8.20;;;6.00;;
5499;SDS011;2772;42.700;23.304;2024-02-14T13:53:39;10.60;;;7.63;;
5499;SDS011;2772;42.700;23.304;2024-02-14T13:56:06;5.50;;;4.67;;
5499;SDS011;2772;42.700;23.304;2024-02-14T13:58:32;9.77;;;6.70;;
5499;SDS011;2772;42.700;23.304;2024-02-14T14:00:59;16.90;;;7.93;;
5499;SDS011;2772;42.700;23.304;2024-02-14T14:03:26;14.57;;;7.43;;
5499;SDS011;2772;42.700;23.304;2024-02-14T14:05:54;13.87;;;6.93;;
5499;SDS011;2772;42.700;23.304;2024-02-14T14:08:23;10.90;;;6.27;;
5499;SDS011;2772;42.700;23.304;2024-02-14T14:10:50;20.60;;;7.10;;
5499;SDS011;2772;42.700;23.304;2024-02-14T14:13:16;13.13;;;7.43;;
5499;SDS011;2772;42.700;23.304;2024-02-14T14:15:43;15.40;;;6.97;;
5499;SDS011;2772;42.700;23.304;2024-02-14T14:18:10;18.37;;;7.60;;
5499;SDS011;2772;42.700;23.304;2024-02-14T14:20:37;15.50;;;8.70;;
5499;SDS011;2772;42.700;23.304;2024-02-14T14:23:04;16.10;;;8.83;;
5499;SDS011;2772;42.700;23.304;2024-02-14T14:25:32;24.87;;;9.50;;
5499;SDS011;2772;42.700;23.304;2024-02-14T14:28:00;18.20;;;7.90;;
5499;SDS011;2772;42.700;23.304;2024-02-14T14:30:27;17.53;;;7.50;;
5499;SDS011;2772;42.700;23.304;2024-02-14T14:32:53;14.30;;;8.40;;
5499;SDS011;2772;42.700;23.304;2024-02-14T14:35:21;19.90;;;7.93;;
5499;SDS011;2772;42.700;23.304;2024-02-14T14:37:47;12.27;;;5.90;;
5499;SDS011;2772;42.700;23.304;2024-02-14T14:40:14;10.40;;;6.17;;
5499;SDS011;2772;42.700;23.304;2024-02-14T14:42:42;10.63;;;6.63;;
5499;SDS011;2772;42.700;23.304;2024-02-14T14:45:09;8.03;;;5.70;;
5499;SDS011;2772;42.700;23.304;2024-02-14T14:47:36;15.70;;;8.43;;
5499;SDS011;2772;42.700;23.304;2024-02-14T14:50:03;23.33;;;7.67;;
5499;SDS011;2772;42.700;23.304;2024-02-14T14:52:30;14.33;;;6.20;;
5499;SDS011;2772;42.700;23.304;2024-02-14T14:54:57;18.43;;;8.40;;